Flight Track Log - Related Links

Times and Time Zones

All times are in EDT time to prevent confusion due to time zone crossing. See the SKW5196 flight status page for this flight to view local times or setup timezone preferences in your user account.

Time Position Orientation Groundspeed Altitude Reporting Facility
EDT Latitude Longitude Course Direction KTS MPH feet Rate Location/Type
Sun 22:05:16 41.9167 -87.9333 228° Southwest 183 211 2,400  Level Chicago TRACON
Sun 22:06:10 41.8833 -87.9833 228° Southwest 225 259 4,100 2,056 Climbing Chicago TRACON
Sun 22:07:04 41.8333 -88.0333 217° Southwest 268 308 6,100 2,311 Climbing Chicago TRACON
Sun 22:08:12 41.8169 -88.1250 257° West 271 312 8,800 2,169 Climbing Chicago Center
Sun 22:09:14 41.8083 -88.2297 264° West 281 323 10,800 1,951 Climbing Chicago Center
Sun 22:10:15 41.7969 -88.3764 264° West 328 377 12,800 2,066 Climbing Chicago Center
Sun 22:11:16 41.7961 -88.5075 270° West 352 405 15,000 2,146 Climbing Chicago Center
Sun 22:12:18 41.7958 -88.6381 270° West 355 409 17,200 2,049 Climbing Chicago Center
Sun 22:13:19 41.7983 -88.7717 271° West 360 414 19,200 2,016 Climbing Chicago Center
Sun 22:14:20 41.8031 -88.9250 272° West 369 425 21,300 1,672 Climbing Chicago Center
Sun 22:15:21 41.8067 -89.0436 272° West 368 423 22,600 1,512 Climbing Chicago Center
Sun 22:16:23 41.8086 -89.2147 271° West 381 438 24,400 1,610 Climbing Chicago Center
Sun 22:17:24 41.8061 -89.3586 269° West 388 447 25,900 1,328 Climbing Chicago Center
Sun 22:18:25 41.8047 -89.5033 269° West 391 450 27,100 1,171 Climbing Chicago Center
Sun 22:19:27 41.8022 -89.6508 269° West 396 456 28,300 1,171 Climbing Chicago Center
Sun 22:20:28 41.8000 -89.7994 269° West 401 461 29,500 1,131 Climbing Chicago Center
Sun 22:21:29 41.7983 -89.9625 269° West 405 466 30,600 1,033 Climbing Chicago Center
Sun 22:22:30 41.7956 -90.1156 269° West 411 473 31,600 683 Climbing Chicago Center
Sun 22:23:32 41.7928 -90.2697 269° West 415 478 32,000 341 Climbing Chicago Center
Sun 22:24:33 41.7897 -90.4289 269° West 427 491 32,300 656 Climbing Chicago Center
Sun 22:26:35 41.7819 -90.7572 268° West 415 478 34,000 554 Climbing Chicago Center
Sun 22:27:37 41.7778 -90.9139 268° West 421 484 34,000  Level Chicago Center
Sun 22:28:38 41.7742 -91.0711 268° West 423 487 34,000  Level Chicago Center
Sun 22:29:39 41.7689 -91.2294 267° West 428 493 34,000  Level Chicago Center
Sun 22:30:40 41.7658 -91.3881 269° West 429 494 34,000  Level Chicago Center
Sun 22:31:41 41.7600 -91.5458 267° West 427 491 34,000  Level Chicago Center
Sun 22:32:42 41.7561 -91.7025 268° West 426 490 34,000  Level Chicago Center
Sun 22:33:44 41.7506 -91.8597 267° West 426 490 34,000  Level Chicago Center
Sun 22:34:45 41.7439 -92.0469 267° West 423 487 34,000  Level Chicago Center
Sun 22:35:46 41.7383 -92.2006 267° West 418 481 34,000  Level Chicago Center
Sun 22:36:47 41.7328 -92.3539 267° West 417 480 34,000  Level Chicago Center
Sun 22:37:48 41.7272 -92.5083 267° West 419 482 34,000  Level Chicago Center
Sun 22:38:49 41.7206 -92.6625 267° West 419 482 34,000  Level Chicago Center
Sun 22:39:21 41.7167 -92.7553 267° West 416 479 34,000  Level Minneapolis Center
Sun 22:40:22 41.7111 -92.9050 267° West 417 480 34,000  Level Minneapolis Center
Sun 22:41:23 41.7031 -93.0558 266° West 414 476 34,000  Level Minneapolis Center
Sun 22:42:24 41.6967 -93.2072 267° West 413 475 34,000  Level Minneapolis Center
Sun 22:43:25 41.6894 -93.3586 266° West 413 475 34,000  Level Minneapolis Center
Sun 22:44:26 41.6831 -93.5092 267° West 411 473 34,000  Level Minneapolis Center
Sun 22:45:27 41.6764 -93.6847 267° West 401 461 34,000  Level Minneapolis Center
Sun 22:46:28 41.6683 -93.8353 266° West 407 468 34,000  Level Minneapolis Center
Sun 22:47:29 41.6583 -93.9886 265° West 413 475 34,000  Level Minneapolis Center
Sun 22:48:30 41.6494 -94.1417 266° West 416 479 34,000  Level Minneapolis Center
Sun 22:49:32 41.6428 -94.2892 267° West 409 471 34,000  Level Minneapolis Center
Sun 22:50:33 41.6353 -94.4414 266° West 410 472 34,000  Level Minneapolis Center
Sun 22:51:34 41.6272 -94.5928 266° West 409 471 34,000  Level Minneapolis Center
Sun 22:52:35 41.6189 -94.7453 266° West 411 473 34,000  Level Minneapolis Center
Sun 22:53:36 41.6100 -94.8958 266° West 408 470 34,000  Level Minneapolis Center
Sun 22:54:37 41.6003 -95.0475 265° West 410 472 34,000  Level Minneapolis Center
Sun 22:55:38 41.5883 -95.2297 265° West 412 474 34,000  Level Minneapolis Center
Sun 22:56:39 41.5786 -95.3819 265° West 413 475 34,000  Level Minneapolis Center
Sun 22:57:40 41.5692 -95.5325 265° West 409 471 34,000  Level Minneapolis Center
Sun 22:58:41 41.5597 -95.6708 265° West 407 468 34,000  Level Minneapolis Center
Sun 22:59:43 41.5492 -95.8236 265° West 411 473 34,000  Level Minneapolis Center
Sun 23:00:44 41.5369 -96.0067 265° West 412 474 34,000  Level Minneapolis Center
Sun 23:01:45 41.5261 -96.1569 265° West 410 472 34,000  Level Minneapolis Center
Sun 23:02:46 41.5181 -96.3094 266° West 411 473 34,000  Level Minneapolis Center
Sun 23:03:47 41.5047 -96.4628 263° West 412 474 34,000  Level Minneapolis Center
Sun 23:04:48 41.4928 -96.6128 264° West 412 474 34,000  Level Minneapolis Center
Sun 23:05:49 41.4806 -96.7653 264° West 412 474 34,000  Level Minneapolis Center
Sun 23:06:50 41.4694 -96.9167 264° West 412 474 34,000  Level Minneapolis Center
Sun 23:07:51 41.4575 -97.0689 264° West 413 475 34,000  Level Minneapolis Center
Sun 23:08:52 41.4453 -97.2208 264° West 413 475 34,000  Level Minneapolis Center
Sun 23:10:05 41.4328 -97.3728 264° West 413 475 34,000  Level Minneapolis Center
Sun 23:11:06 41.4178 -97.5547 264° West 413 475 34,000  Level Minneapolis Center
Sun 23:12:07 41.4064 -97.7069 264° West 412 474 34,000  Level Minneapolis Center
Sun 23:13:08 41.3931 -97.8583 263° West 412 474 34,000  Level Minneapolis Center
Sun 23:14:09 41.3797 -98.0086 263° West 412 474 34,000  Level Minneapolis Center
Sun 23:15:10 41.3636 -98.1922 263° West 414 476 34,000  Level Minneapolis Center
Sun 23:16:11 41.3494 -98.3439 263° West 413 475 34,000  Level Minneapolis Center
Sun 23:17:12 41.3369 -98.4947 264° West 414 476 34,000  Level Minneapolis Center
Sun 23:18:13 41.3222 -98.6472 263° West 416 479 34,000  Level Minneapolis Center
Sun 23:19:14 41.3067 -98.8014 262° West 417 480 34,000  Level Minneapolis Center
Sun 23:20:15 41.2914 -98.9533 262° West 417 480 34,000  Level Minneapolis Center
Sun 23:21:16 41.2767 -99.1044 263° West 415 478 34,000  Level Minneapolis Center
Sun 23:22:17 41.2622 -99.2783 264° West 415 478 34,000  Level Minneapolis Center
Sun 23:23:18 41.2503 -99.3975 262° West 411 473 34,000  Level Minneapolis Center
Sun 23:23:33 41.2444 -99.4506 262° West 410 472 34,000  Level Denver Center
Sun 23:24:34 41.2281 -99.6169 263° West 409 471 34,000  Level Denver Center
Sun 23:25:35 41.2131 -99.7592 262° West 406 467 34,000  Level Denver Center
Sun 23:26:36 41.1986 -99.9011 262° West 407 468 34,000  Level Denver Center
Sun 23:27:37 41.1817 -100.0661 262° West 405 466 34,000  Level Denver Center
Sun 23:28:38 41.1667 -100.2067 262° West 404 465 34,000  Level Denver Center
Sun 23:29:40 41.1489 -100.3703 262° West 404 465 34,000  Level Denver Center
Sun 23:30:41 41.1331 -100.5108 262° West 405 466 34,000  Level Denver Center
Sun 23:31:42 41.1181 -100.6511 262° West 405 466 34,000  Level Denver Center
Sun 23:32:43 41.1003 -100.8150 262° West 406 467 34,000  Level Denver Center
Sun 23:33:44 41.0836 -100.9544 261° West 405 466 34,000  Level Denver Center
Sun 23:34:45 41.0647 -101.1181 261° West 405 466 34,000  Level Denver Center
Sun 23:35:46 41.0486 -101.2589 261° West 406 467 34,000  Level Denver Center
Sun 23:36:47 41.0308 -101.4006 261° West 409 471 34,000  Level Denver Center
Sun 23:37:48 41.0119 -101.5658 261° West 409 471 34,000  Level Denver Center
Sun 23:38:49 40.9944 -101.7094 261° West 413 475 34,000  Level Denver Center
Sun 23:39:50 40.9747 -101.8756 261° West 412 474 34,000  Level Denver Center
Sun 23:40:51 40.9561 -102.0194 260° West 413 475 34,000  Level Denver Center
Sun 23:41:52 40.9386 -102.1628 261° West 413 475 34,000  Level Denver Center
Sun 23:42:53 40.9178 -102.3300 261° West 415 478 34,000  Level Denver Center
Sun 23:43:54 40.8997 -102.4744 261° West 417 480 34,000  Level Denver Center
Sun 23:44:55 40.8803 -102.6197 260° West 419 482 34,000  Level Denver Center
Sun 23:45:56 40.8586 -102.7881 260° West 418 481 34,000  Level Denver Center
Sun 23:46:57 40.8397 -102.9331 260° West 420 483 34,000  Level Denver Center
Sun 23:47:58 40.8206 -103.0833 260° West 418 481 34,000  Level Denver Center
Sun 23:48:59 40.8000 -103.2358 260° West 418 481 34,000  Level Denver Center
Sun 23:50:00 40.7794 -103.3872 260° West 417 480 34,000  Level Denver Center
Sun 23:51:02 40.7592 -103.5353 260° West 410 472 34,000  Level Denver Center
Sun 23:52:02 40.7425 -103.6594 260° West 409 471 34,000  Level Denver Center
Sun 23:53:04 40.7183 -103.8325 260° West 411 473 34,000  Level Denver Center
Sun 23:54:05 40.6936 -104.0039 259° West 406 467 34,000  Level Denver Center
Sun 23:55:06 40.6728 -104.1550 260° West 416 479 34,000  Level Denver Center
Sun 23:56:07 40.6519 -104.3036 260° West 412 474 34,000  Level Denver Center
Sun 23:57:08 40.6303 -104.4506 259° West 409 471 34,000  Level Denver Center
Sun 23:58:09 40.6081 -104.5986 259° West 409 471 34,000  Level Denver Center
Sun 23:59:10 40.5903 -104.7211 259° West 408 470 34,000  Level Denver Center
Mon 00:00:11 40.5686 -104.8919 261° West 404 465 34,000  Level Denver Center
Mon 00:01:12 40.5533 -105.0406 262° West 407 468 34,000  Level Denver Center
Mon 00:02:13 40.5414 -105.1631 263° West 406 467 34,000  Level Denver Center
Mon 00:03:14 40.5239 -105.3361 262° West 407 468 34,000  Level Denver Center
Mon 00:04:15 40.5083 -105.4872 262° West 414 476 34,000  Level Denver Center
Mon 00:05:16 40.4922 -105.6383 262° West 415 478 34,000  Level Denver Center
Mon 00:06:17 40.4764 -105.7906 262° West 417 480 34,000  Level Denver Center
Mon 00:07:18 40.4619 -105.9444 263° West 421 484 34,000  Level Denver Center
Mon 00:08:19 40.4436 -106.0956 261° West 416 479 34,000  Level Denver Center
Mon 00:09:20 40.4256 -106.2650 262° West 414 476 34,000  Level Denver Center
Mon 00:10:21 40.4097 -106.4069 262° West 412 474 34,000  Level Denver Center
Mon 00:11:22 40.3950 -106.5461 262° West 412 474 34,000  Level Denver Center
Mon 00:12:24 40.3778 -106.6936 261° West 411 473 34,000  Level Denver Center
Mon 00:13:25 40.3617 -106.8397 262° West 409 471 34,000  Level Denver Center
Mon 00:14:26 40.3444 -106.9933 262° West 406 467 34,000  Level Denver Center
Mon 00:15:27 40.3250 -107.1567 261° West 406 467 34,000  Level Denver Center
Mon 00:16:40 40.3089 -107.2964 261° West 406 467 34,000  Level Denver Center
Mon 00:17:41 40.2864 -107.4836 261° West 408 470 34,000  Level Denver Center
Mon 00:18:42 40.2722 -107.6008 261° West 408 470 34,000  Level Denver Center
Mon 00:19:43 40.2494 -107.7864 261° West 407 468 34,000  Level Denver Center
Mon 00:20:44 40.2319 -107.9250 261° West 406 467 34,000  Level Denver Center
Mon 00:21:45 40.2144 -108.0633 261° West 405 466 34,000  Level Denver Center
Mon 00:22:46 40.1942 -108.2267 261° West 408 470 34,000  Level Denver Center
Mon 00:23:47 40.1761 -108.3656 260° West 408 470 34,000  Level Denver Center
Mon 00:24:48 40.1583 -108.5061 261° West 411 473 34,000  Level Denver Center
Mon 00:25:49 40.1367 -108.6672 260° West 407 468 34,000  Level Denver Center
Mon 00:26:50 40.1175 -108.8069 260° West 410 472 34,000  Level Denver Center
Mon 00:27:51 40.1111 -108.9706 267° West 408 470 34,000  Level Denver Center
Mon 00:28:52 40.1164 -109.1125 273° West 411 473 34,000  Level Denver Center
Mon 00:29:53 40.1217 -109.2531 273° West 408 470 34,000  Level Denver Center
Mon 00:30:54 40.1272 -109.4183 273° West 409 471 34,000 -344 Level Denver Center
Mon 00:31:55 40.1317 -109.5592 272° West 407 468 33,300 -885 Descending Denver Center
Mon 00:32:56 40.1369 -109.7261 272° West 410 472 32,200 -1,033 Descending Denver Center
Mon 00:33:57 40.1411 -109.8706 272° West 415 478 31,200 -984 Descending Denver Center
Mon 00:34:58 40.1447 -110.0133 272° West 414 476 30,200 -595 Descending Denver Center
Mon 00:35:58 40.1506 -110.1883 273° West 430 495 30,000 -158 Descending Denver Center
Mon 00:36:14 40.1517 -110.2144 273° West 433 498 30,000  Level Salt Lake Center
Mon 00:37:15 40.1558 -110.3917 272° West 438 504 30,000  Level Salt Lake Center
Mon 00:38:16 40.1600 -110.5425 272° West 435 501 30,000  Level Salt Lake Center
Mon 00:39:17 40.1639 -110.6936 272° West 436 502 30,000 -492 Level Salt Lake Center
Mon 00:40:18 40.1675 -110.8708 272° West 437 503 29,000 -2,066 Descending Salt Lake Center
Mon 00:41:19 40.1700 -111.0358 271° West 435 501 25,800 -3,049 Descending Salt Lake Center
Mon 00:42:20 40.1742 -111.1853 272° West 416 479 22,800 -2,754 Descending Salt Lake Center
Mon 00:43:21 40.1767 -111.3294 271° West 399 459 20,200 -2,508 Descending Salt Lake Center
Mon 00:44:22 40.1803 -111.4589 272° West 366 421 17,700 -2,211 Descending Salt Lake Center
Mon 00:45:15 40.1761 -111.5825 268° West 358 412 16,000 -1,214 Descending Salt Lake Center
Mon 00:45:46 40.1792 -111.6517 273° West 352 405 16,000 -396 Level Salt Lake Center
Mon 00:46:46 40.2281 -111.7558 302° West 355 409 15,400 -900 Descending Salt Lake Center
Mon 00:47:26 40.2694 -111.8019 320° Northwest 353 406 14,500 -1,701 Descending Salt Lake Center
Mon 00:47:53 40.3011 -111.8519 310° West 345 397 13,500 -1,967 Descending Salt Lake Center
Mon 00:48:27 40.3339 -111.8892 319° Northwest 335 386 12,500 -2,000 Descending Salt Lake Center
Mon 00:48:53 40.3633 -111.9378 308° West 328 377 11,500 -1,869 Descending Salt Lake Center
Mon 00:49:28 40.4036 -111.9569 340° North 317 365 10,600 -1,475 Descending Salt Lake Center
Mon 00:49:54 40.4458 -111.9633 353° North 302 348 10,000 -689 Descending Salt Lake Center
Mon 00:50:29 40.4836 -111.9594 North 282 325 9,900 -689 Descending Salt Lake Center
Mon 00:50:55 40.5203 -111.9692 349° North 240 276 9,300 -1,180 Descending Salt Lake Center
Mon 00:51:30 40.5486 -111.9694 360° North 238 274 8,700 -1,444 Descending Salt Lake Center
Mon 00:51:49 40.5781 -111.9778 348° North 228 262 8,000 -1,279 Descending Salt Lake Center
Mon 00:52:31 40.6097 -111.9767 North 224 258 7,400 -1,107 Descending Salt Lake Center
Mon 00:53:32 40.6767 -111.9867 354° North 204 235 6,100 -1,033 Descending Salt Lake Center
Mon 00:54:33 40.7208 -111.9917 355° North 158 182 5,300 -744 Descending Salt Lake Center
Mon 00:55:33 40.7561 -111.9964 354° North 130 150 4,600 -541 Descending Salt Lake Center
Mon 00:56:35 40.7864 -111.9967 360° North 124 143 4,200 -387 Descending Salt Lake Center
Mon 00:58:00 40.7884 -111.9778 North  Level Estimated

Login

Don't have an account? Register now (free) for customized features, flight alerts, and more!